sensor_id;sensor_type;location;lat;lon;timestamp;P1;durP1;ratioP1;P2;durP2;ratioP2
41115;SDS011;26861;51.824;4.682;2023-07-31T00:00:43;7.65;;;2.70;;
41115;SDS011;26861;51.824;4.682;2023-07-31T00:03:09;6.10;;;3.22;;
41115;SDS011;26861;51.824;4.682;2023-07-31T00:05:35;7.22;;;2.78;;
41115;SDS011;26861;51.824;4.682;2023-07-31T00:08:01;6.10;;;3.10;;
41115;SDS011;26861;51.824;4.682;2023-07-31T00:10:26;7.03;;;2.92;;
41115;SDS011;26861;51.824;4.682;2023-07-31T00:12:52;9.13;;;3.10;;
41115;SDS011;26861;51.824;4.682;2023-07-31T00:15:17;7.05;;;2.80;;
41115;SDS011;26861;51.824;4.682;2023-07-31T00:17:43;9.82;;;3.03;;
41115;SDS011;26861;51.824;4.682;2023-07-31T00:20:09;6.68;;;3.10;;
41115;SDS011;26861;51.824;4.682;2023-07-31T00:22:35;8.20;;;3.00;;
41115;SDS011;26861;51.824;4.682;2023-07-31T00:25:01;6.93;;;3.13;;
41115;SDS011;26861;51.824;4.682;2023-07-31T00:27:27;8.85;;;2.88;;
41115;SDS011;26861;51.824;4.682;2023-07-31T00:29:53;7.20;;;3.38;;
41115;SDS011;26861;51.824;4.682;2023-07-31T00:32:19;5.32;;;2.35;;
41115;SDS011;26861;51.824;4.682;2023-07-31T00:34:45;6.75;;;2.85;;
41115;SDS011;26861;51.824;4.682;2023-07-31T00:37:11;6.93;;;3.25;;
41115;SDS011;26861;51.824;4.682;2023-07-31T00:39:37;7.82;;;3.25;;
41115;SDS011;26861;51.824;4.682;2023-07-31T00:42:03;7.88;;;2.92;;
41115;SDS011;26861;51.824;4.682;2023-07-31T00:44:30;7.68;;;3.05;;
41115;SDS011;26861;51.824;4.682;2023-07-31T00:46:56;9.07;;;3.38;;
41115;SDS011;26861;51.824;4.682;2023-07-31T00:49:24;6.38;;;2.92;;
41115;SDS011;26861;51.824;4.682;2023-07-31T00:51:51;9.55;;;3.15;;
41115;SDS011;26861;51.824;4.682;2023-07-31T00:54:18;8.60;;;3.35;;
41115;SDS011;26861;51.824;4.682;2023-07-31T00:56:45;9.35;;;3.60;;
41115;SDS011;26861;51.824;4.682;2023-07-31T00:59:14;7.90;;;3.00;;
41115;SDS011;26861;51.824;4.682;2023-07-31T01:01:40;9.18;;;4.32;;
41115;SDS011;26861;51.824;4.682;2023-07-31T01:04:06;10.40;;;3.70;;
41115;SDS011;26861;51.824;4.682;2023-07-31T01:12:13;6.45;;;3.42;;
41115;SDS011;26861;51.824;4.682;2023-07-31T01:14:50;9.32;;;3.53;;
41115;SDS011;26861;51.824;4.682;2023-07-31T01:17:38;6.38;;;3.15;;
41115;SDS011;26861;51.824;4.682;2023-07-31T01:20:05;9.52;;;3.47;;
41115;SDS011;26861;51.824;4.682;2023-07-31T01:27:44;8.57;;;3.25;;
41115;SDS011;26861;51.824;4.682;2023-07-31T01:30:22;9.93;;;3.28;;
41115;SDS011;26861;51.824;4.682;2023-07-31T01:32:53;7.25;;;3.03;;
41115;SDS011;26861;51.824;4.682;2023-07-31T01:35:21;9.57;;;3.38;;
41115;SDS011;26861;51.824;4.682;2023-07-31T01:37:47;8.60;;;3.85;;
41115;SDS011;26861;51.824;4.682;2023-07-31T01:40:14;6.80;;;3.30;;
41115;SDS011;26861;51.824;4.682;2023-07-31T01:42:40;7.97;;;3.67;;
41115;SDS011;26861;51.824;4.682;2023-07-31T01:45:06;7.15;;;3.63;;
41115;SDS011;26861;51.824;4.682;2023-07-31T01:47:32;5.18;;;3.22;;
41115;SDS011;26861;51.824;4.682;2023-07-31T01:49:58;7.30;;;3.20;;
41115;SDS011;26861;51.824;4.682;2023-07-31T01:52:24;7.70;;;3.45;;
41115;SDS011;26861;51.824;4.682;2023-07-31T01:54:51;6.25;;;2.78;;
41115;SDS011;26861;51.824;4.682;2023-07-31T01:57:17;6.25;;;3.25;;
41115;SDS011;26861;51.824;4.682;2023-07-31T01:59:43;6.93;;;3.78;;
41115;SDS011;26861;51.824;4.682;2023-07-31T02:02:10;8.18;;;3.15;;
41115;SDS011;26861;51.824;4.682;2023-07-31T02:04:35;8.75;;;3.50;;
41115;SDS011;26861;51.824;4.682;2023-07-31T02:07:03;5.70;;;3.03;;
41115;SDS011;26861;51.824;4.682;2023-07-31T02:09:29;6.38;;;3.20;;
41115;SDS011;26861;51.824;4.682;2023-07-31T02:11:54;7.95;;;3.15;;
41115;SDS011;26861;51.824;4.682;2023-07-31T02:14:20;6.57;;;2.85;;
41115;SDS011;26861;51.824;4.682;2023-07-31T02:16:46;7.72;;;3.70;;
41115;SDS011;26861;51.824;4.682;2023-07-31T02:19:11;8.43;;;3.88;;
41115;SDS011;26861;51.824;4.682;2023-07-31T02:21:37;8.68;;;3.88;;
41115;SDS011;26861;51.824;4.682;2023-07-31T02:24:02;8.15;;;3.47;;
41115;SDS011;26861;51.824;4.682;2023-07-31T02:26:28;7.07;;;3.55;;
41115;SDS011;26861;51.824;4.682;2023-07-31T02:28:54;8.68;;;3.72;;
41115;SDS011;26861;51.824;4.682;2023-07-31T02:31:19;8.20;;;3.95;;
41115;SDS011;26861;51.824;4.682;2023-07-31T02:33:45;6.43;;;3.35;;
41115;SDS011;26861;51.824;4.682;2023-07-31T02:36:11;7.95;;;3.58;;
41115;SDS011;26861;51.824;4.682;2023-07-31T02:38:36;7.95;;;3.47;;
41115;SDS011;26861;51.824;4.682;2023-07-31T02:41:02;6.57;;;3.50;;
41115;SDS011;26861;51.824;4.682;2023-07-31T02:43:27;9.02;;;4.07;;
41115;SDS011;26861;51.824;4.682;2023-07-31T02:45:53;8.00;;;3.45;;
41115;SDS011;26861;51.824;4.682;2023-07-31T02:48:19;8.80;;;3.60;;
41115;SDS011;26861;51.824;4.682;2023-07-31T02:50:45;9.75;;;3.70;;
41115;SDS011;26861;51.824;4.682;2023-07-31T02:53:12;5.43;;;3.30;;
41115;SDS011;26861;51.824;4.682;2023-07-31T02:55:38;6.40;;;3.40;;
41115;SDS011;26861;51.824;4.682;2023-07-31T02:58:03;5.78;;;2.97;;
41115;SDS011;26861;51.824;4.682;2023-07-31T03:00:29;6.75;;;3.30;;
41115;SDS011;26861;51.824;4.682;2023-07-31T03:02:55;6.80;;;3.28;;
41115;SDS011;26861;51.824;4.682;2023-07-31T03:05:20;7.03;;;3.00;;
41115;SDS011;26861;51.824;4.682;2023-07-31T03:07:46;7.53;;;3.50;;
41115;SDS011;26861;51.824;4.682;2023-07-31T03:10:12;8.93;;;3.80;;
41115;SDS011;26861;51.824;4.682;2023-07-31T03:12:38;6.22;;;3.33;;
41115;SDS011;26861;51.824;4.682;2023-07-31T03:15:05;8.32;;;3.65;;
41115;SDS011;26861;51.824;4.682;2023-07-31T03:17:32;8.73;;;3.95;;
41115;SDS011;26861;51.824;4.682;2023-07-31T03:19:58;8.15;;;3.55;;
41115;SDS011;26861;51.824;4.682;2023-07-31T03:22:24;7.25;;;3.08;;
41115;SDS011;26861;51.824;4.682;2023-07-31T03:24:49;7.07;;;3.28;;
41115;SDS011;26861;51.824;4.682;2023-07-31T03:27:15;6.40;;;3.47;;
41115;SDS011;26861;51.824;4.682;2023-07-31T03:29:41;7.25;;;3.72;;
41115;SDS011;26861;51.824;4.682;2023-07-31T03:32:06;9.15;;;3.85;;
41115;SDS011;26861;51.824;4.682;2023-07-31T03:34:32;7.53;;;3.50;;
41115;SDS011;26861;51.824;4.682;2023-07-31T03:36:59;7.18;;;3.67;;
41115;SDS011;26861;51.824;4.682;2023-07-31T03:39:24;7.07;;;3.45;;
41115;SDS011;26861;51.824;4.682;2023-07-31T03:41:50;9.23;;;3.53;;
41115;SDS011;26861;51.824;4.682;2023-07-31T03:44:15;5.75;;;3.50;;
41115;SDS011;26861;51.824;4.682;2023-07-31T03:46:41;4.97;;;2.90;;
41115;SDS011;26861;51.824;4.682;2023-07-31T03:49:07;5.53;;;3.42;;
41115;SDS011;26861;51.824;4.682;2023-07-31T03:51:32;9.20;;;3.38;;
41115;SDS011;26861;51.824;4.682;2023-07-31T03:53:58;7.80;;;3.35;;
41115;SDS011;26861;51.824;4.682;2023-07-31T03:56:23;7.57;;;3.17;;
41115;SDS011;26861;51.824;4.682;2023-07-31T03:58:49;5.90;;;3.33;;
41115;SDS011;26861;51.824;4.682;2023-07-31T04:07:12;4.93;;;2.97;;
41115;SDS011;26861;51.824;4.682;2023-07-31T04:09:38;7.13;;;3.28;;
41115;SDS011;26861;51.824;4.682;2023-07-31T04:12:04;6.50;;;3.20;;
41115;SDS011;26861;51.824;4.682;2023-07-31T04:14:29;7.13;;;3.33;;
41115;SDS011;26861;51.824;4.682;2023-07-31T04:16:55;4.50;;;2.80;;
41115;SDS011;26861;51.824;4.682;2023-07-31T04:19:21;6.93;;;2.80;;
41115;SDS011;26861;51.824;4.682;2023-07-31T04:21:47;4.90;;;3.13;;
41115;SDS011;26861;51.824;4.682;2023-07-31T04:24:13;5.85;;;3.15;;
41115;SDS011;26861;51.824;4.682;2023-07-31T04:26:39;7.63;;;3.58;;
41115;SDS011;26861;51.824;4.682;2023-07-31T04:29:04;6.18;;;3.35;;
41115;SDS011;26861;51.824;4.682;2023-07-31T04:31:30;5.72;;;3.15;;
41115;SDS011;26861;51.824;4.682;2023-07-31T04:33:57;5.47;;;3.20;;
41115;SDS011;26861;51.824;4.682;2023-07-31T04:36:22;4.90;;;3.00;;
41115;SDS011;26861;51.824;4.682;2023-07-31T04:38:48;6.72;;;2.97;;
41115;SDS011;26861;51.824;4.682;2023-07-31T04:41:14;5.35;;;3.38;;
41115;SDS011;26861;51.824;4.682;2023-07-31T04:43:39;5.75;;;2.67;;
41115;SDS011;26861;51.824;4.682;2023-07-31T04:46:05;5.47;;;2.95;;
41115;SDS011;26861;51.824;4.682;2023-07-31T04:48:31;6.57;;;2.72;;
41115;SDS011;26861;51.824;4.682;2023-07-31T04:50:57;6.75;;;2.95;;
41115;SDS011;26861;51.824;4.682;2023-07-31T04:53:23;6.30;;;3.08;;
41115;SDS011;26861;51.824;4.682;2023-07-31T04:55:49;5.30;;;2.65;;
41115;SDS011;26861;51.824;4.682;2023-07-31T04:58:16;5.90;;;2.60;;
41115;SDS011;26861;51.824;4.682;2023-07-31T05:00:42;4.93;;;2.92;;
41115;SDS011;26861;51.824;4.682;2023-07-31T05:03:08;4.65;;;3.25;;
41115;SDS011;26861;51.824;4.682;2023-07-31T05:05:36;4.88;;;2.55;;
41115;SDS011;26861;51.824;4.682;2023-07-31T05:08:02;4.65;;;2.70;;
41115;SDS011;26861;51.824;4.682;2023-07-31T05:10:28;4.63;;;2.50;;
41115;SDS011;26861;51.824;4.682;2023-07-31T05:12:54;4.38;;;2.47;;
41115;SDS011;26861;51.824;4.682;2023-07-31T05:15:20;5.82;;;2.45;;
41115;SDS011;26861;51.824;4.682;2023-07-31T05:17:46;4.05;;;2.13;;
41115;SDS011;26861;51.824;4.682;2023-07-31T05:20:11;4.28;;;2.65;;
41115;SDS011;26861;51.824;4.682;2023-07-31T05:22:37;4.20;;;2.78;;
41115;SDS011;26861;51.824;4.682;2023-07-31T05:25:03;7.50;;;2.67;;
41115;SDS011;26861;51.824;4.682;2023-07-31T05:27:29;5.93;;;2.63;;
41115;SDS011;26861;51.824;4.682;2023-07-31T05:29:55;3.83;;;2.40;;
41115;SDS011;26861;51.824;4.682;2023-07-31T05:32:20;4.60;;;2.05;;
41115;SDS011;26861;51.824;4.682;2023-07-31T05:34:46;4.28;;;2.50;;
41115;SDS011;26861;51.824;4.682;2023-07-31T05:37:13;4.82;;;2.47;;
41115;SDS011;26861;51.824;4.682;2023-07-31T05:39:39;4.40;;;1.98;;
41115;SDS011;26861;51.824;4.682;2023-07-31T05:42:05;3.95;;;2.17;;
41115;SDS011;26861;51.824;4.682;2023-07-31T05:44:32;4.40;;;2.40;;
41115;SDS011;26861;51.824;4.682;2023-07-31T05:46:57;3.05;;;1.95;;
41115;SDS011;26861;51.824;4.682;2023-07-31T05:49:23;5.00;;;2.42;;
41115;SDS011;26861;51.824;4.682;2023-07-31T05:51:48;3.35;;;2.35;;
41115;SDS011;26861;51.824;4.682;2023-07-31T05:54:14;3.13;;;2.00;;
41115;SDS011;26861;51.824;4.682;2023-07-31T05:56:39;4.28;;;2.22;;
41115;SDS011;26861;51.824;4.682;2023-07-31T05:59:05;3.60;;;2.13;;
41115;SDS011;26861;51.824;4.682;2023-07-31T06:01:31;4.03;;;2.08;;
41115;SDS011;26861;51.824;4.682;2023-07-31T06:03:57;4.15;;;2.17;;
41115;SDS011;26861;51.824;4.682;2023-07-31T06:06:22;3.70;;;2.10;;
41115;SDS011;26861;51.824;4.682;2023-07-31T06:08:48;5.43;;;1.80;;
41115;SDS011;26861;51.824;4.682;2023-07-31T06:11:15;5.57;;;2.25;;
41115;SDS011;26861;51.824;4.682;2023-07-31T06:13:41;3.70;;;2.10;;
41115;SDS011;26861;51.824;4.682;2023-07-31T06:16:10;2.17;;;1.90;;
41115;SDS011;26861;51.824;4.682;2023-07-31T06:18:36;2.45;;;1.52;;
41115;SDS011;26861;51.824;4.682;2023-07-31T06:21:02;4.47;;;2.47;;
41115;SDS011;26861;51.824;4.682;2023-07-31T06:23:28;4.47;;;2.10;;
41115;SDS011;26861;51.824;4.682;2023-07-31T06:25:54;3.38;;;1.80;;
41115;SDS011;26861;51.824;4.682;2023-07-31T06:28:19;2.58;;;2.08;;
41115;SDS011;26861;51.824;4.682;2023-07-31T06:30:45;3.83;;;1.95;;
41115;SDS011;26861;51.824;4.682;2023-07-31T06:33:11;3.53;;;1.98;;
41115;SDS011;26861;51.824;4.682;2023-07-31T06:35:37;3.72;;;2.03;;
41115;SDS011;26861;51.824;4.682;2023-07-31T06:38:03;2.92;;;1.70;;
41115;SDS011;26861;51.824;4.682;2023-07-31T06:40:29;2.75;;;1.95;;
41115;SDS011;26861;51.824;4.682;2023-07-31T06:42:56;3.30;;;1.90;;
41115;SDS011;26861;51.824;4.682;2023-07-31T06:45:21;2.85;;;1.75;;
41115;SDS011;26861;51.824;4.682;2023-07-31T06:47:48;2.67;;;2.00;;
41115;SDS011;26861;51.824;4.682;2023-07-31T06:50:14;2.78;;;1.70;;
41115;SDS011;26861;51.824;4.682;2023-07-31T06:52:39;2.75;;;1.60;;
41115;SDS011;26861;51.824;4.682;2023-07-31T06:55:16;3.30;;;1.98;;
41115;SDS011;26861;51.824;4.682;2023-07-31T06:57:50;3.53;;;1.50;;
41115;SDS011;26861;51.824;4.682;2023-07-31T07:00:18;2.38;;;1.60;;
41115;SDS011;26861;51.824;4.682;2023-07-31T07:02:45;2.30;;;1.88;;
41115;SDS011;26861;51.824;4.682;2023-07-31T07:05:15;2.65;;;1.58;;
41115;SDS011;26861;51.824;4.682;2023-07-31T07:07:42;3.53;;;1.75;;
41115;SDS011;26861;51.824;4.682;2023-07-31T07:10:08;2.10;;;1.60;;
41115;SDS011;26861;51.824;4.682;2023-07-31T07:12:35;2.78;;;1.48;;
41115;SDS011;26861;51.824;4.682;2023-07-31T07:15:01;2.35;;;1.60;;
41115;SDS011;26861;51.824;4.682;2023-07-31T07:17:28;3.47;;;1.30;;
41115;SDS011;26861;51.824;4.682;2023-07-31T07:19:56;2.05;;;1.30;;
41115;SDS011;26861;51.824;4.682;2023-07-31T07:22:23;2.10;;;1.45;;
41115;SDS011;26861;51.824;4.682;2023-07-31T07:24:49;2.22;;;1.45;;
41115;SDS011;26861;51.824;4.682;2023-07-31T07:27:15;1.55;;;1.30;;
41115;SDS011;26861;51.824;4.682;2023-07-31T07:29:41;2.38;;;1.35;;
41115;SDS011;26861;51.824;4.682;2023-07-31T07:32:07;2.40;;;1.35;;
41115;SDS011;26861;51.824;4.682;2023-07-31T07:34:34;1.88;;;1.30;;
41115;SDS011;26861;51.824;4.682;2023-07-31T07:37:00;1.33;;;1.10;;
41115;SDS011;26861;51.824;4.682;2023-07-31T07:39:26;2.13;;;1.10;;
41115;SDS011;26861;51.824;4.682;2023-07-31T07:41:52;1.30;;;1.10;;
41115;SDS011;26861;51.824;4.682;2023-07-31T07:44:19;1.42;;;0.95;;
41115;SDS011;26861;51.824;4.682;2023-07-31T07:46:45;1.70;;;1.13;;
41115;SDS011;26861;51.824;4.682;2023-07-31T07:49:11;2.30;;;1.20;;
41115;SDS011;26861;51.824;4.682;2023-07-31T07:51:38;1.77;;;1.10;;
41115;SDS011;26861;51.824;4.682;2023-07-31T07:54:04;2.72;;;1.17;;
41115;SDS011;26861;51.824;4.682;2023-07-31T07:56:29;2.10;;;1.25;;
41115;SDS011;26861;51.824;4.682;2023-07-31T07:58:55;2.38;;;1.17;;
41115;SDS011;26861;51.824;4.682;2023-07-31T08:01:21;3.03;;;1.00;;
41115;SDS011;26861;51.824;4.682;2023-07-31T08:03:47;1.50;;;0.88;;
41115;SDS011;26861;51.824;4.682;2023-07-31T08:06:14;1.95;;;1.10;;
41115;SDS011;26861;51.824;4.682;2023-07-31T08:08:39;1.23;;;0.93;;
41115;SDS011;26861;51.824;4.682;2023-07-31T08:11:05;1.17;;;0.93;;
41115;SDS011;26861;51.824;4.682;2023-07-31T08:13:31;1.80;;;1.00;;
41115;SDS011;26861;51.824;4.682;2023-07-31T08:15:57;1.85;;;0.80;;
41115;SDS011;26861;51.824;4.682;2023-07-31T08:18:22;1.00;;;0.75;;
41115;SDS011;26861;51.824;4.682;2023-07-31T08:20:48;1.75;;;1.02;;
41115;SDS011;26861;51.824;4.682;2023-07-31T08:23:14;1.55;;;0.90;;
41115;SDS011;26861;51.824;4.682;2023-07-31T08:25:39;1.38;;;0.95;;
41115;SDS011;26861;51.824;4.682;2023-07-31T08:28:05;1.35;;;0.68;;
41115;SDS011;26861;51.824;4.682;2023-07-31T08:30:31;0.82;;;0.82;;
41115;SDS011;26861;51.824;4.682;2023-07-31T08:32:58;1.10;;;0.93;;
41115;SDS011;26861;51.824;4.682;2023-07-31T08:35:24;1.30;;;0.90;;
41115;SDS011;26861;51.824;4.682;2023-07-31T08:37:50;1.23;;;1.00;;
41115;SDS011;26861;51.824;4.682;2023-07-31T08:40:16;1.05;;;0.80;;
41115;SDS011;26861;51.824;4.682;2023-07-31T08:42:45;1.30;;;1.05;;
41115;SDS011;26861;51.824;4.682;2023-07-31T08:45:18;1.33;;;0.85;;
41115;SDS011;26861;51.824;4.682;2023-07-31T08:47:45;1.20;;;0.90;;
41115;SDS011;26861;51.824;4.682;2023-07-31T08:52:42;1.30;;;0.88;;
41115;SDS011;26861;51.824;4.682;2023-07-31T08:55:08;1.00;;;0.90;;
41115;SDS011;26861;51.824;4.682;2023-07-31T08:57:35;1.10;;;0.73;;
41115;SDS011;26861;51.824;4.682;2023-07-31T09:00:03;1.35;;;0.98;;
41115;SDS011;26861;51.824;4.682;2023-07-31T09:02:48;0.77;;;0.70;;
41115;SDS011;26861;51.824;4.682;2023-07-31T09:05:29;1.80;;;0.80;;
41115;SDS011;26861;51.824;4.682;2023-07-31T09:07:56;1.20;;;0.80;;
41115;SDS011;26861;51.824;4.682;2023-07-31T09:10:22;1.90;;;0.70;;
41115;SDS011;26861;51.824;4.682;2023-07-31T09:12:50;1.60;;;0.80;;
41115;SDS011;26861;51.824;4.682;2023-07-31T09:15:17;1.80;;;0.90;;
41115;SDS011;26861;51.824;4.682;2023-07-31T09:17:44;1.17;;;0.80;;
41115;SDS011;26861;51.824;4.682;2023-07-31T09:22:44;2.70;;;1.05;;
41115;SDS011;26861;51.824;4.682;2023-07-31T09:30:29;1.92;;;0.93;;
41115;SDS011;26861;51.824;4.682;2023-07-31T09:33:02;1.63;;;1.05;;
41115;SDS011;26861;51.824;4.682;2023-07-31T09:35:31;1.30;;;0.98;;
41115;SDS011;26861;51.824;4.682;2023-07-31T09:37:59;1.40;;;0.80;;
41115;SDS011;26861;51.824;4.682;2023-07-31T09:40:34;2.60;;;0.93;;
41115;SDS011;26861;51.824;4.682;2023-07-31T09:43:02;1.15;;;0.93;;
41115;SDS011;26861;51.824;4.682;2023-07-31T09:45:29;1.05;;;0.80;;
41115;SDS011;26861;51.824;4.682;2023-07-31T09:47:55;1.08;;;0.77;;
41115;SDS011;26861;51.824;4.682;2023-07-31T09:50:22;1.75;;;0.90;;
41115;SDS011;26861;51.824;4.682;2023-07-31T09:52:50;1.15;;;1.00;;
41115;SDS011;26861;51.824;4.682;2023-07-31T09:55:17;1.17;;;0.85;;
41115;SDS011;26861;51.824;4.682;2023-07-31T09:57:45;1.25;;;0.65;;
41115;SDS011;26861;51.824;4.682;2023-07-31T10:02:45;1.23;;;0.90;;
41115;SDS011;26861;51.824;4.682;2023-07-31T10:05:15;1.50;;;1.00;;
41115;SDS011;26861;51.824;4.682;2023-07-31T10:07:52;2.03;;;0.90;;
41115;SDS011;26861;51.824;4.682;2023-07-31T10:10:20;1.08;;;0.70;;
41115;SDS011;26861;51.824;4.682;2023-07-31T10:12:50;2.22;;;1.00;;
41115;SDS011;26861;51.824;4.682;2023-07-31T10:15:18;1.63;;;0.82;;
41115;SDS011;26861;51.824;4.682;2023-07-31T10:17:49;1.25;;;1.00;;
41115;SDS011;26861;51.824;4.682;2023-07-31T10:20:15;1.98;;;0.95;;
41115;SDS011;26861;51.824;4.682;2023-07-31T10:22:43;2.05;;;0.77;;
41115;SDS011;26861;51.824;4.682;2023-07-31T10:25:11;1.65;;;0.85;;
41115;SDS011;26861;51.824;4.682;2023-07-31T10:27:38;1.45;;;0.88;;
41115;SDS011;26861;51.824;4.682;2023-07-31T10:30:05;1.55;;;0.93;;
41115;SDS011;26861;51.824;4.682;2023-07-31T10:32:43;1.35;;;1.00;;
41115;SDS011;26861;51.824;4.682;2023-07-31T10:35:11;0.75;;;0.75;;
41115;SDS011;26861;51.824;4.682;2023-07-31T10:40:05;1.15;;;0.93;;
41115;SDS011;26861;51.824;4.682;2023-07-31T10:42:45;2.20;;;1.00;;
41115;SDS011;26861;51.824;4.682;2023-07-31T10:45:13;1.00;;;0.93;;
41115;SDS011;26861;51.824;4.682;2023-07-31T10:47:44;1.50;;;0.90;;
41115;SDS011;26861;51.824;4.682;2023-07-31T10:50:29;1.33;;;0.80;;
41115;SDS011;26861;51.824;4.682;2023-07-31T10:53:00;1.10;;;0.65;;
41115;SDS011;26861;51.824;4.682;2023-07-31T10:58:07;1.55;;;0.80;;
41115;SDS011;26861;51.824;4.682;2023-07-31T11:00:36;0.70;;;0.57;;
41115;SDS011;26861;51.824;4.682;2023-07-31T11:03:07;0.90;;;0.80;;
41115;SDS011;26861;51.824;4.682;2023-07-31T11:05:42;1.05;;;0.80;;
41115;SDS011;26861;51.824;4.682;2023-07-31T11:10:46;0.55;;;0.55;;
41115;SDS011;26861;51.824;4.682;2023-07-31T11:13:14;1.08;;;0.82;;
41115;SDS011;26861;51.824;4.682;2023-07-31T11:15:40;0.88;;;0.88;;
41115;SDS011;26861;51.824;4.682;2023-07-31T11:18:06;1.50;;;0.80;;
41115;SDS011;26861;51.824;4.682;2023-07-31T11:20:34;0.98;;;0.90;;
41115;SDS011;26861;51.824;4.682;2023-07-31T11:23:01;0.88;;;0.80;;
41115;SDS011;26861;51.824;4.682;2023-07-31T11:25:32;1.25;;;0.93;;
41115;SDS011;26861;51.824;4.682;2023-07-31T11:28:02;1.03;;;0.77;;
41115;SDS011;26861;51.824;4.682;2023-07-31T11:30:32;1.02;;;0.80;;
41115;SDS011;26861;51.824;4.682;2023-07-31T11:32:59;1.00;;;0.70;;
41115;SDS011;26861;51.824;4.682;2023-07-31T11:35:32;0.95;;;0.82;;
41115;SDS011;26861;51.824;4.682;2023-07-31T11:38:06;1.05;;;0.70;;
41115;SDS011;26861;51.824;4.682;2023-07-31T11:40:40;0.80;;;0.80;;
41115;SDS011;26861;51.824;4.682;2023-07-31T11:43:09;0.70;;;0.47;;
41115;SDS011;26861;51.824;4.682;2023-07-31T11:45:41;1.10;;;0.75;;
41115;SDS011;26861;51.824;4.682;2023-07-31T11:48:10;0.90;;;0.73;;
41115;SDS011;26861;51.824;4.682;2023-07-31T11:50:43;1.52;;;0.60;;
41115;SDS011;26861;51.824;4.682;2023-07-31T11:53:11;0.80;;;0.52;;
41115;SDS011;26861;51.824;4.682;2023-07-31T11:55:38;0.95;;;0.90;;
41115;SDS011;26861;51.824;4.682;2023-07-31T11:58:05;1.75;;;0.77;;
41115;SDS011;26861;51.824;4.682;2023-07-31T12:00:31;1.20;;;0.77;;
41115;SDS011;26861;51.824;4.682;2023-07-31T12:02:57;2.45;;;0.70;;
41115;SDS011;26861;51.824;4.682;2023-07-31T12:05:23;0.60;;;0.60;;
41115;SDS011;26861;51.824;4.682;2023-07-31T12:07:50;0.40;;;0.40;;
41115;SDS011;26861;51.824;4.682;2023-07-31T12:13:06;0.88;;;0.70;;
41115;SDS011;26861;51.824;4.682;2023-07-31T12:15:42;0.85;;;0.60;;
41115;SDS011;26861;51.824;4.682;2023-07-31T12:18:15;0.93;;;0.70;;
41115;SDS011;26861;51.824;4.682;2023-07-31T12:20:48;1.63;;;0.60;;
41115;SDS011;26861;51.824;4.682;2023-07-31T12:23:19;0.57;;;0.43;;
41115;SDS011;26861;51.824;4.682;2023-07-31T12:26:06;0.82;;;0.50;;
41115;SDS011;26861;51.824;4.682;2023-07-31T12:28:41;0.73;;;0.60;;
41115;SDS011;26861;51.824;4.682;2023-07-31T12:31:27;1.23;;;0.75;;
41115;SDS011;26861;51.824;4.682;2023-07-31T12:33:54;0.85;;;0.50;;
41115;SDS011;26861;51.824;4.682;2023-07-31T12:36:22;0.80;;;0.63;;
41115;SDS011;26861;51.824;4.682;2023-07-31T12:38:49;0.90;;;0.70;;
41115;SDS011;26861;51.824;4.682;2023-07-31T12:41:16;0.63;;;0.60;;
41115;SDS011;26861;51.824;4.682;2023-07-31T12:43:43;1.05;;;0.57;;
41115;SDS011;26861;51.824;4.682;2023-07-31T12:46:10;0.52;;;0.50;;
41115;SDS011;26861;51.824;4.682;2023-07-31T12:48:37;1.67;;;0.52;;
41115;SDS011;26861;51.824;4.682;2023-07-31T12:51:04;1.63;;;0.80;;
41115;SDS011;26861;51.824;4.682;2023-07-31T12:53:30;1.92;;;0.90;;
41115;SDS011;26861;51.824;4.682;2023-07-31T12:55:56;0.60;;;0.60;;
41115;SDS011;26861;51.824;4.682;2023-07-31T12:58:22;1.33;;;0.60;;
41115;SDS011;26861;51.824;4.682;2023-07-31T13:00:49;0.50;;;0.50;;
41115;SDS011;26861;51.824;4.682;2023-07-31T13:03:16;1.00;;;0.60;;
41115;SDS011;26861;51.824;4.682;2023-07-31T13:05:42;0.57;;;0.47;;
41115;SDS011;26861;51.824;4.682;2023-07-31T13:08:07;0.50;;;0.50;;
41115;SDS011;26861;51.824;4.682;2023-07-31T13:10:33;0.70;;;0.60;;
41115;SDS011;26861;51.824;4.682;2023-07-31T13:12:58;1.90;;;0.50;;
41115;SDS011;26861;51.824;4.682;2023-07-31T13:15:24;1.45;;;0.60;;
41115;SDS011;26861;51.824;4.682;2023-07-31T13:17:50;0.77;;;0.52;;
41115;SDS011;26861;51.824;4.682;2023-07-31T13:20:16;0.95;;;0.50;;
41115;SDS011;26861;51.824;4.682;2023-07-31T13:22:43;1.40;;;0.63;;
41115;SDS011;26861;51.824;4.682;2023-07-31T13:25:09;0.73;;;0.65;;
41115;SDS011;26861;51.824;4.682;2023-07-31T13:27:36;0.80;;;0.60;;
41115;SDS011;26861;51.824;4.682;2023-07-31T13:30:02;0.57;;;0.57;;
41115;SDS011;26861;51.824;4.682;2023-07-31T13:32:29;1.30;;;0.45;;
41115;SDS011;26861;51.824;4.682;2023-07-31T13:34:55;0.95;;;0.60;;
41115;SDS011;26861;51.824;4.682;2023-07-31T13:37:21;0.80;;;0.70;;
41115;SDS011;26861;51.824;4.682;2023-07-31T13:39:47;0.60;;;0.50;;
41115;SDS011;26861;51.824;4.682;2023-07-31T13:42:13;0.93;;;0.60;;
41115;SDS011;26861;51.824;4.682;2023-07-31T13:44:39;0.90;;;0.50;;
41115;SDS011;26861;51.824;4.682;2023-07-31T13:47:07;1.45;;;0.73;;
41115;SDS011;26861;51.824;4.682;2023-07-31T13:49:34;0.55;;;0.55;;
41115;SDS011;26861;51.824;4.682;2023-07-31T13:52:01;0.60;;;0.52;;
41115;SDS011;26861;51.824;4.682;2023-07-31T13:54:27;0.77;;;0.75;;
41115;SDS011;26861;51.824;4.682;2023-07-31T13:56:53;0.80;;;0.65;;
41115;SDS011;26861;51.824;4.682;2023-07-31T13:59:19;0.82;;;0.82;;
41115;SDS011;26861;51.824;4.682;2023-07-31T14:01:46;1.13;;;0.50;;
41115;SDS011;26861;51.824;4.682;2023-07-31T14:04:13;0.90;;;0.77;;
41115;SDS011;26861;51.824;4.682;2023-07-31T14:06:39;0.82;;;0.70;;
41115;SDS011;26861;51.824;4.682;2023-07-31T14:09:05;0.65;;;0.60;;
41115;SDS011;26861;51.824;4.682;2023-07-31T14:11:32;0.80;;;0.70;;
41115;SDS011;26861;51.824;4.682;2023-07-31T14:13:58;2.00;;;0.60;;
41115;SDS011;26861;51.824;4.682;2023-07-31T14:16:24;0.70;;;0.63;;
41115;SDS011;26861;51.824;4.682;2023-07-31T14:18:50;0.77;;;0.77;;
41115;SDS011;26861;51.824;4.682;2023-07-31T14:21:16;2.80;;;0.70;;
41115;SDS011;26861;51.824;4.682;2023-07-31T14:23:44;2.22;;;0.70;;
41115;SDS011;26861;51.824;4.682;2023-07-31T14:26:11;1.55;;;0.80;;
41115;SDS011;26861;51.824;4.682;2023-07-31T14:28:37;1.77;;;0.80;;
41115;SDS011;26861;51.824;4.682;2023-07-31T14:31:03;1.40;;;0.82;;
41115;SDS011;26861;51.824;4.682;2023-07-31T14:33:29;1.20;;;0.80;;
41115;SDS011;26861;51.824;4.682;2023-07-31T14:35:55;1.42;;;0.88;;
41115;SDS011;26861;51.824;4.682;2023-07-31T14:38:21;1.20;;;1.05;;
41115;SDS011;26861;51.824;4.682;2023-07-31T14:40:47;0.80;;;0.60;;
41115;SDS011;26861;51.824;4.682;2023-07-31T14:43:13;1.00;;;0.90;;
41115;SDS011;26861;51.824;4.682;2023-07-31T14:45:39;0.77;;;0.77;;
41115;SDS011;26861;51.824;4.682;2023-07-31T14:48:06;1.65;;;0.90;;
41115;SDS011;26861;51.824;4.682;2023-07-31T14:50:31;2.63;;;0.98;;
41115;SDS011;26861;51.824;4.682;2023-07-31T14:52:57;1.35;;;0.90;;
41115;SDS011;26861;51.824;4.682;2023-07-31T14:55:23;1.02;;;0.95;;
41115;SDS011;26861;51.824;4.682;2023-07-31T14:57:48;0.95;;;0.80;;
41115;SDS011;26861;51.824;4.682;2023-07-31T15:00:14;1.20;;;1.00;;
41115;SDS011;26861;51.824;4.682;2023-07-31T15:02:40;1.35;;;0.80;;
41115;SDS011;26861;51.824;4.682;2023-07-31T15:05:07;1.15;;;0.95;;
41115;SDS011;26861;51.824;4.682;2023-07-31T15:07:34;0.80;;;0.60;;
41115;SDS011;26861;51.824;4.682;2023-07-31T15:10:03;2.05;;;0.80;;
41115;SDS011;26861;51.824;4.682;2023-07-31T15:12:29;1.20;;;0.80;;
41115;SDS011;26861;51.824;4.682;2023-07-31T15:14:56;0.70;;;0.50;;
41115;SDS011;26861;51.824;4.682;2023-07-31T15:17:22;0.80;;;0.80;;
41115;SDS011;26861;51.824;4.682;2023-07-31T15:19:48;1.48;;;0.90;;
41115;SDS011;26861;51.824;4.682;2023-07-31T15:22:14;0.90;;;0.68;;
41115;SDS011;26861;51.824;4.682;2023-07-31T15:24:39;1.50;;;0.80;;
41115;SDS011;26861;51.824;4.682;2023-07-31T15:27:05;1.15;;;0.88;;